Time;durP1;ratioP1;P1;durP2;ratioP2;P2;SDS_P1;SDS_P2;PMS_P1;PMS_P2;Temp;Humidity;BMP_temperature;BMP_pressure;BME280_temperature;BME280_humidity;BME280_pressure;Samples;Min_cycle;Max_cycle;Signal;HPM_P1;HPM_P2
2022/07/07 00:00:04;;;;;;;3.22;1.10;;;;;;;;;;5034611;28;20499;-82
2022/07/07 00:02:30;;;;;;;3.33;1.27;;;;;;;;;;5034361;28;20038;-82
2022/07/07 00:04:56;;;;;;;1.35;1.10;;;;;;;;;;5034318;28;20129;-82
2022/07/07 00:07:22;;;;;;;2.72;1.23;;;;;;;;;;5049577;28;20075;-82
2022/07/07 00:09:48;;;;;;;2.33;1.33;;;;;;;;;;5034130;28;20038;-82
2022/07/07 00:12:15;;;;;;;5.55;1.40;;;;;;;;;;5034278;28;20034;-81
2022/07/07 00:14:41;;;;;;;4.95;1.50;;;;;;;;;;5049267;28;20041;-82
2022/07/07 00:17:07;;;;;;;3.08;1.30;;;;;;;;;;5049542;28;20061;-82
2022/07/07 00:19:33;;;;;;;3.08;1.75;;;;;;;;;;5034242;28;20041;-82
2022/07/07 00:21:59;;;;;;;3.75;1.30;;;;;;;;;;5034211;28;20488;-82
2022/07/07 00:24:25;;;;;;;2.78;1.10;;;;;;;;;;5033783;28;20040;-82
2022/07/07 00:26:51;;;;;;;1.73;1.10;;;;;;;;;;5036642;28;20128;-82
2022/07/07 00:29:18;;;;;;;4.00;1.23;;;;;;;;;;5038365;28;20033;-82
2022/07/07 00:31:44;;;;;;;2.55;1.17;;;;;;;;;;5037929;28;20041;-83
2022/07/07 00:34:10;;;;;;;2.00;1.10;;;;;;;;;;5037714;28;20052;-82
2022/07/07 00:36:39;;;;;;;4.35;1.20;;;;;;;;;;5037849;28;20129;-82
2022/07/07 00:39:05;;;;;;;2.35;1.20;;;;;;;;;;5038068;28;20107;-82
2022/07/07 00:41:31;;;;;;;2.42;1.10;;;;;;;;;;5053464;28;20483;-81
2022/07/07 00:43:57;;;;;;;3.13;1.58;;;;;;;;;;5038133;28;20136;-82
2022/07/07 00:46:23;;;;;;;4.57;1.20;;;;;;;;;;5038131;28;20069;-82
2022/07/07 00:48:49;;;;;;;2.35;1.27;;;;;;;;;;5038447;28;20038;-82
2022/07/07 00:51:16;;;;;;;1.77;1.23;;;;;;;;;;5038110;28;20040;-83
2022/07/07 00:53:42;;;;;;;1.52;1.02;;;;;;;;;;5053315;28;20064;-82
2022/07/07 00:56:08;;;;;;;2.88;1.20;;;;;;;;;;5037793;28;20042;-82
2022/07/07 00:58:35;;;;;;;1.73;1.23;;;;;;;;;;5037901;28;20041;-82
2022/07/07 01:01:02;;;;;;;1.45;1.10;;;;;;;;;;5053012;28;20082;-82
2022/07/07 01:03:28;;;;;;;1.92;1.20;;;;;;;;;;5037817;28;20071;-82
2022/07/07 01:05:55;;;;;;;1.65;1.25;;;;;;;;;;5037302;28;20041;-82
2022/07/07 01:08:21;;;;;;;1.42;1.10;;;;;;;;;;5037967;28;20037;-82
2022/07/07 01:10:47;;;;;;;3.47;1.27;;;;;;;;;;5037256;28;20069;-82
2022/07/07 01:13:13;;;;;;;4.32;1.77;;;;;;;;;;5052801;28;20037;-82
2022/07/07 01:15:40;;;;;;;2.78;1.15;;;;;;;;;;5037448;28;20037;-83
2022/07/07 01:18:09;;;;;;;2.50;1.50;;;;;;;;;;5037395;28;20045;-82
2022/07/07 01:20:35;;;;;;;2.95;1.20;;;;;;;;;;5037039;28;20111;-82
2022/07/07 01:23:01;;;;;;;1.67;1.08;;;;;;;;;;5036920;28;20048;-83
2022/07/07 01:25:27;;;;;;;5.10;1.25;;;;;;;;;;5037061;28;20136;-83
2022/07/07 01:27:54;;;;;;;4.50;1.50;;;;;;;;;;5037236;28;20033;-83
2022/07/07 01:30:20;;;;;;;1.58;1.08;;;;;;;;;;5036971;28;20037;-82
2022/07/07 01:32:46;;;;;;;2.30;1.38;;;;;;;;;;5037179;28;20148;-82
2022/07/07 01:35:12;;;;;;;2.65;1.02;;;;;;;;;;5052351;28;20045;-83
2022/07/07 01:37:39;;;;;;;3.35;1.50;;;;;;;;;;5036391;28;20488;-82
2022/07/07 01:40:05;;;;;;;3.95;1.45;;;;;;;;;;5036931;28;20088;-82
2022/07/07 01:42:31;;;;;;;1.33;1.00;;;;;;;;;;5052539;28;20396;-83
2022/07/07 01:44:58;;;;;;;2.92;1.42;;;;;;;;;;5036806;28;20048;-83
2022/07/07 01:47:24;;;;;;;1.65;1.30;;;;;;;;;;5052192;28;20049;-83
2022/07/07 01:49:51;;;;;;;3.65;1.52;;;;;;;;;;5037066;28;20117;-82
2022/07/07 01:52:18;;;;;;;2.03;1.17;;;;;;;;;;5036771;28;20041;-82
2022/07/07 01:54:44;;;;;;;1.33;1.20;;;;;;;;;;5036254;28;20084;-83
2022/07/07 01:57:10;;;;;;;2.95;1.50;;;;;;;;;;5036633;28;20041;-82
2022/07/07 01:59:37;;;;;;;2.45;1.20;;;;;;;;;;5036613;28;20041;-83
2022/07/07 02:02:03;;;;;;;3.90;1.60;;;;;;;;;;5037100;28;20041;-82
2022/07/07 02:04:29;;;;;;;4.30;1.30;;;;;;;;;;5036431;28;20068;-82
2022/07/07 02:06:55;;;;;;;4.30;1.30;;;;;;;;;;5036461;28;20048;-83
2022/07/07 02:09:21;;;;;;;1.77;1.20;;;;;;;;;;5036348;28;20561;-82
2022/07/07 02:11:48;;;;;;;2.65;1.30;;;;;;;;;;5036387;28;20068;-82
2022/07/07 02:14:14;;;;;;;3.03;1.05;;;;;;;;;;5036306;28;20061;-82
2022/07/07 02:16:40;;;;;;;3.95;1.60;;;;;;;;;;5036027;28;20076;-82
2022/07/07 02:19:07;;;;;;;3.05;1.70;;;;;;;;;;5036591;28;20553;-82
2022/07/07 02:21:34;;;;;;;2.95;1.40;;;;;;;;;;5036461;28;20041;-82
2022/07/07 02:24:00;;;;;;;3.17;1.33;;;;;;;;;;5035897;28;20052;-82
2022/07/07 02:26:26;;;;;;;3.17;1.45;;;;;;;;;;5051628;28;20415;-82
2022/07/07 02:28:52;;;;;;;2.58;1.65;;;;;;;;;;5036327;28;20570;-83
2022/07/07 02:31:18;;;;;;;3.92;1.50;;;;;;;;;;5035689;28;20050;-83
2022/07/07 02:33:45;;;;;;;3.42;1.55;;;;;;;;;;5036161;28;20127;-83
2022/07/07 02:36:12;;;;;;;1.60;1.33;;;;;;;;;;5036520;28;20491;-82
2022/07/07 02:38:38;;;;;;;2.33;1.60;;;;;;;;;;5035500;28;20484;-82
2022/07/07 02:41:04;;;;;;;2.30;1.80;;;;;;;;;;5035741;28;20037;-83
2022/07/07 02:43:31;;;;;;;1.92;1.67;;;;;;;;;;5036193;28;20049;-82
2022/07/07 02:45:57;;;;;;;2.42;1.30;;;;;;;;;;5051094;28;20041;-82
2022/07/07 02:48:24;;;;;;;1.70;1.35;;;;;;;;;;5035290;28;20488;-82
2022/07/07 02:50:51;;;;;;;4.43;1.40;;;;;;;;;;5035326;28;20033;-82
2022/07/07 02:53:17;;;;;;;4.63;1.70;;;;;;;;;;5035432;28;20134;-82
2022/07/07 02:55:44;;;;;;;3.78;1.60;;;;;;;;;;5035253;28;20041;-82
2022/07/07 02:58:11;;;;;;;3.10;1.55;;;;;;;;;;5035186;28;20083;-82
2022/07/07 03:00:38;;;;;;;7.32;1.90;;;;;;;;;;5035489;28;20065;-82
2022/07/07 03:03:05;;;;;;;2.00;1.52;;;;;;;;;;5035344;28;20065;-83
2022/07/07 03:05:31;;;;;;;2.40;1.70;;;;;;;;;;5035339;28;20057;-82
2022/07/07 03:07:58;;;;;;;5.70;1.65;;;;;;;;;;5035882;28;20033;-82
2022/07/07 03:10:24;;;;;;;4.57;1.65;;;;;;;;;;5035224;28;20045;-82
2022/07/07 03:12:50;;;;;;;1.85;1.25;;;;;;;;;;5035236;28;20045;-81
2022/07/07 03:15:16;;;;;;;3.60;1.67;;;;;;;;;;5035177;28;20083;-82
2022/07/07 03:17:46;;;;;;;3.17;1.40;;;;;;;;;;5035442;28;20041;-82
2022/07/07 03:20:13;;;;;;;2.08;1.33;;;;;;;;;;5034747;28;20724;-82
2022/07/07 03:22:39;;;;;;;4.38;1.60;;;;;;;;;;5035160;28;20029;-82
2022/07/07 03:25:06;;;;;;;3.75;1.88;;;;;;;;;;5034839;28;20087;-82
2022/07/07 03:27:32;;;;;;;2.38;1.63;;;;;;;;;;5034786;28;20045;-83
2022/07/07 03:29:58;;;;;;;2.63;1.70;;;;;;;;;;5035163;28;20045;-82
2022/07/07 03:32:24;;;;;;;2.60;1.90;;;;;;;;;;5034725;28;20037;-82
2022/07/07 03:34:51;;;;;;;4.05;2.10;;;;;;;;;;5034653;28;20045;-82
2022/07/07 03:37:17;;;;;;;4.90;1.90;;;;;;;;;;5035215;28;20061;-82
2022/07/07 03:39:43;;;;;;;3.50;2.00;;;;;;;;;;5034596;28;20053;-82
2022/07/07 03:42:09;;;;;;;5.47;1.95;;;;;;;;;;5034649;28;20061;-82
2022/07/07 03:44:35;;;;;;;4.78;1.83;;;;;;;;;;5034137;28;20402;-82
2022/07/07 03:47:02;;;;;;;1.98;1.77;;;;;;;;;;5034188;28;20125;-83
2022/07/07 03:49:28;;;;;;;2.97;1.70;;;;;;;;;;5034588;28;20125;-82
2022/07/07 03:51:54;;;;;;;4.07;1.60;;;;;;;;;;5034492;28;20041;-83
2022/07/07 03:54:20;;;;;;;4.55;1.90;;;;;;;;;;5034396;28;20045;-82
2022/07/07 03:56:46;;;;;;;3.50;1.80;;;;;;;;;;5034160;28;20558;-82
2022/07/07 03:59:12;;;;;;;3.47;1.70;;;;;;;;;;5034733;28;20099;-82
2022/07/07 04:01:44;;;;;;;3.55;1.70;;;;;;;;;;5038764;28;20041;-82
2022/07/07 04:04:10;;;;;;;5.80;1.80;;;;;;;;;;5038489;28;20049;-82
2022/07/07 04:06:37;;;;;;;3.33;1.70;;;;;;;;;;5038093;28;20408;-82
2022/07/07 04:09:03;;;;;;;3.67;1.80;;;;;;;;;;5038281;28;20419;-82
2022/07/07 04:11:29;;;;;;;5.15;1.83;;;;;;;;;;5038375;28;20196;-82
2022/07/07 04:13:55;;;;;;;2.55;1.42;;;;;;;;;;5038288;28;20074;-82
2022/07/07 04:16:21;;;;;;;6.30;1.67;;;;;;;;;;5038522;28;20037;-82
2022/07/07 04:18:47;;;;;;;3.70;1.52;;;;;;;;;;5038498;28;20081;-82
2022/07/07 04:21:14;;;;;;;4.32;1.70;;;;;;;;;;5038079;28;20047;-82
2022/07/07 04:23:40;;;;;;;4.55;1.50;;;;;;;;;;5037840;28;20128;-82
2022/07/07 04:26:06;;;;;;;3.65;1.85;;;;;;;;;;5038569;28;20490;-82
2022/07/07 04:28:32;;;;;;;2.85;1.73;;;;;;;;;;5038593;28;20515;-82
2022/07/07 04:30:58;;;;;;;4.47;1.90;;;;;;;;;;5037960;28;20065;-82
2022/07/07 04:33:24;;;;;;;2.15;1.73;;;;;;;;;;5053267;28;20155;-82
2022/07/07 04:35:50;;;;;;;3.75;1.95;;;;;;;;;;5037862;28;20535;-82
2022/07/07 04:38:16;;;;;;;5.82;1.70;;;;;;;;;;5038250;28;20049;-82
2022/07/07 04:40:42;;;;;;;3.55;2.03;;;;;;;;;;5037381;28;20152;-82
2022/07/07 04:43:09;;;;;;;3.00;1.60;;;;;;;;;;5037920;28;20094;-82
2022/07/07 04:45:35;;;;;;;3.97;2.00;;;;;;;;;;5037413;28;20046;-82
2022/07/07 04:48:01;;;;;;;2.80;1.38;;;;;;;;;;5053046;28;20460;-83
2022/07/07 04:50:27;;;;;;;4.45;1.52;;;;;;;;;;5052921;28;20044;-82
2022/07/07 04:52:54;;;;;;;3.50;1.50;;;;;;;;;;5037264;28;20496;-82
2022/07/07 04:55:20;;;;;;;3.22;1.85;;;;;;;;;;5037121;28;20041;-82
2022/07/07 04:57:46;;;;;;;4.03;1.77;;;;;;;;;;5037219;28;20037;-82
2022/07/07 05:00:13;;;;;;;6.18;2.00;;;;;;;;;;5036922;28;20103;-81
2022/07/07 05:02:39;;;;;;;2.38;1.88;;;;;;;;;;5035742;28;20136;-82
2022/07/07 05:05:08;;;;;;;5.82;2.38;;;;;;;;;;5035981;28;20052;-81
2022/07/07 05:07:34;;;;;;;4.63;1.80;;;;;;;;;;5035943;28;20530;-82
2022/07/07 05:10:01;;;;;;;4.80;1.80;;;;;;;;;;5022547;28;20042;-81
2022/07/07 05:12:27;;;;;;;4.80;1.88;;;;;;;;;;5012147;28;20607;-82
2022/07/07 05:14:53;;;;;;;5.43;1.90;;;;;;;;;;5016350;28;20415;-82
2022/07/07 05:17:20;;;;;;;2.38;1.55;;;;;;;;;;5015307;28;20069;-82
2022/07/07 05:19:46;;;;;;;4.97;1.90;;;;;;;;;;5032435;28;20120;-82
2022/07/07 05:22:12;;;;;;;6.18;2.10;;;;;;;;;;5017649;28;20038;-82
2022/07/07 05:24:38;;;;;;;4.47;2.03;;;;;;;;;;5015768;28;20053;-82
2022/07/07 05:27:05;;;;;;;2.92;1.70;;;;;;;;;;5017079;28;20137;-81
2022/07/07 05:29:31;;;;;;;2.08;1.42;;;;;;;;;;5004460;28;20049;-81
2022/07/07 05:31:57;;;;;;;2.10;1.75;;;;;;;;;;5008554;28;20133;-80
2022/07/07 05:34:24;;;;;;;3.08;1.90;;;;;;;;;;5000732;28;20085;-80
2022/07/07 05:36:50;;;;;;;7.38;1.90;;;;;;;;;;5004940;28;20068;-81
2022/07/07 05:39:16;;;;;;;3.70;1.60;;;;;;;;;;5002319;28;20060;-81
2022/07/07 05:41:43;;;;;;;4.90;1.90;;;;;;;;;;4991872;28;20046;-81
2022/07/07 05:44:09;;;;;;;4.18;1.88;;;;;;;;;;4996933;28;20065;-81
2022/07/07 05:46:35;;;;;;;3.30;1.90;;;;;;;;;;5016408;28;20100;-80
2022/07/07 05:49:02;;;;;;;5.82;1.50;;;;;;;;;;4997874;28;20038;-80
2022/07/07 05:51:28;;;;;;;4.18;1.50;;;;;;;;;;5013511;28;20042;-79
2022/07/07 05:53:54;;;;;;;4.18;1.40;;;;;;;;;;5002393;28;20045;-81
2022/07/07 05:56:20;;;;;;;1.90;1.50;;;;;;;;;;4997254;28;20042;-81
2022/07/07 05:58:47;;;;;;;3.95;1.70;;;;;;;;;;5007484;28;20042;-81
2022/07/07 06:01:13;;;;;;;2.50;1.50;;;;;;;;;;4995635;28;20049;-80
2022/07/07 06:03:39;;;;;;;6.40;2.00;;;;;;;;;;4997050;28;20497;-81
2022/07/07 06:06:05;;;;;;;2.83;1.48;;;;;;;;;;4996821;28;20489;-81
2022/07/07 06:08:31;;;;;;;3.25;1.75;;;;;;;;;;4996555;28;20076;-81
2022/07/07 06:10:58;;;;;;;2.30;1.48;;;;;;;;;;4995941;28;20042;-81
2022/07/07 06:13:24;;;;;;;2.72;1.55;;;;;;;;;;4999972;28;20045;-81
2022/07/07 06:15:50;;;;;;;5.18;1.55;;;;;;;;;;5014704;28;20489;-81
2022/07/07 06:18:17;;;;;;;5.15;1.52;;;;;;;;;;5001872;28;20096;-80
2022/07/07 06:20:43;;;;;;;3.75;1.60;;;;;;;;;;4995672;28;20050;-84
2022/07/07 06:24:44;;;;;;;2.17;1.60;;;;;;;;;;5070355;28;20413;-82
2022/07/07 06:27:10;;;;;;;3.33;1.20;;;;;;;;;;5072026;28;20128;-81
2022/07/07 06:29:36;;;;;;;3.45;1.38;;;;;;;;;;5072206;28;20059;-82
2022/07/07 06:32:03;;;;;;;4.75;1.63;;;;;;;;;;5071629;28;20040;-82
2022/07/07 06:34:29;;;;;;;3.75;1.52;;;;;;;;;;5071316;28;20045;-82
2022/07/07 06:36:55;;;;;;;3.08;1.60;;;;;;;;;;5072005;28;20052;-80
2022/07/07 06:39:22;;;;;;;2.53;1.55;;;;;;;;;;5071568;28;20037;-78
2022/07/07 06:41:48;;;;;;;4.18;1.50;;;;;;;;;;5071302;28;20154;-77
2022/07/07 06:44:14;;;;;;;2.75;1.70;;;;;;;;;;5071853;28;20040;-75
2022/07/07 06:46:40;;;;;;;4.35;1.40;;;;;;;;;;5071731;28;20522;-75
2022/07/07 06:49:06;;;;;;;1.63;1.52;;;;;;;;;;5071345;28;20063;-76
2022/07/07 06:51:32;;;;;;;2.17;1.38;;;;;;;;;;5070927;28;20414;-76
2022/07/07 06:53:59;;;;;;;2.92;1.45;;;;;;;;;;5071170;28;20044;-77
2022/07/07 06:56:25;;;;;;;3.45;1.30;;;;;;;;;;5071261;28;20120;-77
2022/07/07 06:58:52;;;;;;;2.95;1.33;;;;;;;;;;5071673;28;20048;-77
2022/07/07 07:01:18;;;;;;;3.72;1.48;;;;;;;;;;5071204;28;20480;-76
2022/07/07 07:03:44;;;;;;;4.25;1.20;;;;;;;;;;5071047;28;20082;-76
2022/07/07 07:06:10;;;;;;;3.53;1.40;;;;;;;;;;5071094;28;20581;-77
2022/07/07 07:08:36;;;;;;;2.33;1.30;;;;;;;;;;5071087;28;20033;-77
2022/07/07 07:11:03;;;;;;;4.22;1.50;;;;;;;;;;5070719;28;20079;-77
2022/07/07 07:13:30;;;;;;;3.03;1.20;;;;;;;;;;5070890;28;20036;-77
2022/07/07 07:15:56;;;;;;;2.28;1.45;;;;;;;;;;5070560;28;20064;-77
2022/07/07 07:18:22;;;;;;;2.15;1.60;;;;;;;;;;5070901;28;20143;-77
2022/07/07 07:20:48;;;;;;;1.50;1.20;;;;;;;;;;5070691;28;20037;-77
2022/07/07 07:23:14;;;;;;;1.73;1.40;;;;;;;;;;5070504;28;20521;-77
2022/07/07 07:25:40;;;;;;;1.90;1.20;;;;;;;;;;5071007;28;20048;-76
2022/07/07 07:28:07;;;;;;;4.70;1.95;;;;;;;;;;5070916;28;20043;-76
2022/07/07 07:30:33;;;;;;;3.47;1.35;;;;;;;;;;5070632;28;20094;-76
2022/07/07 07:35:35;;;;;;;2.17;1.30;;;;;;;;;;5328924;22;20478;-77
2022/07/07 07:38:01;;;;;;;1.60;1.20;;;;;;;;;;5018127;28;20038;-77
2022/07/07 07:40:27;;;;;;;2.50;1.30;;;;;;;;;;5018073;28;20049;-76
2022/07/07 07:42:53;;;;;;;3.45;1.42;;;;;;;;;;5017589;28;20077;-77
2022/07/07 07:45:20;;;;;;;3.28;1.27;;;;;;;;;;5017668;28;20080;-77
2022/07/07 07:47:47;;;;;;;3.33;1.00;;;;;;;;;;5017819;28;20088;-76
2022/07/07 07:50:14;;;;;;;4.10;1.27;;;;;;;;;;5017347;28;20044;-76
2022/07/07 07:52:41;;;;;;;2.22;1.00;;;;;;;;;;5018091;28;20041;-76
2022/07/07 07:55:08;;;;;;;1.65;1.10;;;;;;;;;;5017487;28;20073;-77
2022/07/07 07:57:35;;;;;;;4.10;1.30;;;;;;;;;;5017484;28;20124;-77
2022/07/07 08:00:01;;;;;;;2.55;1.25;;;;;;;;;;5016933;28;20065;-76
2022/07/07 08:02:27;;;;;;;4.28;1.30;;;;;;;;;;5016987;28;20038;-77
2022/07/07 08:04:53;;;;;;;2.45;1.23;;;;;;;;;;5017361;28;20053;-76
2022/07/07 08:07:19;;;;;;;2.85;1.25;;;;;;;;;;5017013;28;20041;-77
2022/07/07 08:09:46;;;;;;;4.70;1.70;;;;;;;;;;5016914;28;20044;-77
2022/07/07 08:12:12;;;;;;;3.40;1.42;;;;;;;;;;5017448;28;20171;-76
2022/07/07 08:14:38;;;;;;;4.03;1.70;;;;;;;;;;5017671;28;20057;-77
2022/07/07 08:17:05;;;;;;;1.88;1.15;;;;;;;;;;5016786;28;20044;-76
2022/07/07 08:19:31;;;;;;;2.95;1.25;;;;;;;;;;5016877;28;20052;-76
2022/07/07 08:21:57;;;;;;;1.65;1.17;;;;;;;;;;5016699;28;20516;-76
2022/07/07 08:24:23;;;;;;;4.78;1.40;;;;;;;;;;5016528;28;20046;-76
2022/07/07 08:26:49;;;;;;;2.75;1.10;;;;;;;;;;5016874;28;20120;-77
2022/07/07 08:29:16;;;;;;;2.42;1.30;;;;;;;;;;5016753;28;20042;-77
2022/07/07 08:31:42;;;;;;;1.83;1.10;;;;;;;;;;5016783;28;20037;-76
2022/07/07 08:34:08;;;;;;;2.47;1.00;;;;;;;;;;5016611;28;20488;-77
2022/07/07 08:36:34;;;;;;;2.55;1.00;;;;;;;;;;5016700;28;20040;-77
2022/07/07 08:39:01;;;;;;;7.05;1.33;;;;;;;;;;5015984;28;20038;-77
2022/07/07 08:41:28;;;;;;;2.92;1.50;;;;;;;;;;5017062;28;20034;-76
2022/07/07 08:43:55;;;;;;;3.75;1.00;;;;;;;;;;5016491;28;20050;-77
2022/07/07 08:46:22;;;;;;;5.22;1.35;;;;;;;;;;5014993;28;20046;-75
2022/07/07 08:48:48;;;;;;;2.42;0.93;;;;;;;;;;5016202;28;20049;-75
2022/07/07 08:51:16;;;;;;;3.47;1.38;;;;;;;;;;5016676;28;20041;-75
2022/07/07 08:53:44;;;;;;;3.97;1.20;;;;;;;;;;5016110;28;20046;-76
2022/07/07 08:56:10;;;;;;;2.55;1.60;;;;;;;;;;5016100;28;20033;-76
2022/07/07 08:58:37;;;;;;;3.78;1.25;;;;;;;;;;5026458;28;20088;-75
2022/07/07 09:01:03;;;;;;;4.35;1.27;;;;;;;;;;5015734;28;20059;-76
2022/07/07 09:03:30;;;;;;;2.25;1.30;;;;;;;;;;5016242;28;20046;-76
2022/07/07 09:05:59;;;;;;;1.40;1.30;;;;;;;;;;5015058;28;20041;-76
2022/07/07 09:08:26;;;;;;;4.50;1.50;;;;;;;;;;5015088;28;20045;-77
2022/07/07 09:10:52;;;;;;;2.22;1.27;;;;;;;;;;5014149;28;20045;-77
2022/07/07 09:13:28;;;;;;;4.00;1.63;;;;;;;;;;5015530;28;20076;-77
2022/07/07 09:15:55;;;;;;;3.55;1.15;;;;;;;;;;5014087;28;20461;-76
2022/07/07 09:18:35;;;;;;;6.05;1.23;;;;;;;;;;5015068;28;20038;-76
2022/07/07 09:21:03;;;;;;;6.53;1.55;;;;;;;;;;5015268;28;20153;-77
2022/07/07 09:23:29;;;;;;;3.28;1.20;;;;;;;;;;5014776;28;20095;-77
2022/07/07 09:25:55;;;;;;;1.90;1.08;;;;;;;;;;5015188;28;20466;-77
2022/07/07 09:28:22;;;;;;;3.35;1.35;;;;;;;;;;5015639;28;20064;-76
2022/07/07 09:30:48;;;;;;;8.65;1.83;;;;;;;;;;5015533;28;20042;-76
2022/07/07 09:33:16;;;;;;;3.67;1.10;;;;;;;;;;5015736;28;20038;-76
2022/07/07 09:38:30;;;;;;;3.08;1.08;;;;;;;;;;5015116;28;20523;-76
2022/07/07 09:40:59;;;;;;;5.72;1.10;;;;;;;;;;5015299;28;20511;-77
2022/07/07 09:43:26;;;;;;;5.20;1.00;;;;;;;;;;5013123;28;20048;-76
2022/07/07 09:46:11;;;;;;;5.65;1.15;;;;;;;;;;5015177;28;20050;-76
2022/07/07 09:48:38;;;;;;;7.63;1.17;;;;;;;;;;5015566;28;20123;-76
2022/07/07 09:51:15;;;;;;;2.63;0.93;;;;;;;;;;5014799;28;20038;-77
2022/07/07 09:54:12;;;;;;;3.35;0.98;;;;;;;;;;5015713;28;20049;-76
2022/07/07 09:56:42;;;;;;;3.53;1.35;;;;;;;;;;5003010;28;20124;-77
2022/07/07 09:59:09;;;;;;;2.80;0.82;;;;;;;;;;5014458;28;20069;-77
2022/07/07 10:01:36;;;;;;;3.97;1.00;;;;;;;;;;5015205;28;20057;-76
2022/07/07 10:04:04;;;;;;;3.47;1.10;;;;;;;;;;5014781;28;20488;-77
2022/07/07 10:06:31;;;;;;;2.97;1.00;;;;;;;;;;5014613;28;20045;-76
2022/07/07 10:08:58;;;;;;;4.65;1.10;;;;;;;;;;5014862;28;20049;-76
2022/07/07 10:11:41;;;;;;;3.92;1.48;;;;;;;;;;5014881;28;20038;-75
2022/07/07 10:14:16;;;;;;;4.95;1.08;;;;;;;;;;5015086;28;20096;-76
2022/07/07 10:16:43;;;;;;;3.85;1.25;;;;;;;;;;5014486;28;20045;-75
2022/07/07 10:19:11;;;;;;;5.47;1.15;;;;;;;;;;5014572;28;20034;-76
2022/07/07 10:21:38;;;;;;;3.28;1.20;;;;;;;;;;5014490;28;20046;-76
2022/07/07 10:24:05;;;;;;;3.88;1.20;;;;;;;;;;5014772;28;20050;-75
2022/07/07 10:26:38;;;;;;;3.50;1.55;;;;;;;;;;5014683;28;20152;-75
2022/07/07 10:29:04;;;;;;;2.38;1.13;;;;;;;;;;5014675;28;20045;-76
2022/07/07 10:31:31;;;;;;;3.13;1.30;;;;;;;;;;5014354;28;20046;-75
2022/07/07 10:34:07;;;;;;;5.03;1.10;;;;;;;;;;5014450;28;20106;-77
2022/07/07 10:36:51;;;;;;;9.45;1.52;;;;;;;;;;5014061;28;20072;-76
2022/07/07 10:39:25;;;;;;;3.45;1.02;;;;;;;;;;5014317;28;20562;-75
2022/07/07 10:42:10;;;;;;;4.95;1.27;;;;;;;;;;5014243;28;20111;-74
2022/07/07 10:44:37;;;;;;;2.70;1.00;;;;;;;;;;5014341;28;20049;-75
2022/07/07 10:47:12;;;;;;;6.65;1.27;;;;;;;;;;5014220;28;20041;-75
2022/07/07 10:49:43;;;;;;;5.75;1.00;;;;;;;;;;5014331;28;20034;-75
2022/07/07 10:52:12;;;;;;;2.95;1.10;;;;;;;;;;5015284;28;20112;-75
2022/07/07 10:54:40;;;;;;;2.92;0.88;;;;;;;;;;5014869;28;20042;-75
2022/07/07 10:57:06;;;;;;;3.95;1.20;;;;;;;;;;5013124;28;20096;-74
2022/07/07 10:59:52;;;;;;;5.97;1.13;;;;;;;;;;5014749;28;20041;-75
2022/07/07 11:02:38;;;;;;;2.35;0.90;;;;;;;;;;5012586;28;20054;-75
2022/07/07 11:05:25;;;;;;;1.80;1.20;;;;;;;;;;5013679;28;20046;-74
2022/07/07 11:07:57;;;;;;;5.28;1.00;;;;;;;;;;5012552;28;20171;-75
2022/07/07 11:10:46;;;;;;;6.40;1.15;;;;;;;;;;5015562;28;20045;-75
2022/07/07 11:13:16;;;;;;;4.32;0.93;;;;;;;;;;5017091;28;20041;-75
2022/07/07 11:15:42;;;;;;;;;;;;;;;;;;5018449;28;20049;-75
2022/07/07 11:18:10;;;;;;;1.35;1.15;;;;;;;;;;5017985;28;20355;-75
2022/07/07 11:20:37;;;;;;;2.83;1.02;;;;;;;;;;5017943;28;20038;-76
2022/07/07 11:23:10;;;;;;;3.53;1.17;;;;;;;;;;5017605;28;20045;-75
2022/07/07 11:25:37;;;;;;;4.88;1.10;;;;;;;;;;5018014;28;20500;-75
2022/07/07 11:28:06;;;;;;;2.45;1.00;;;;;;;;;;5018308;28;20038;-75
2022/07/07 11:30:33;;;;;;;2.75;1.00;;;;;;;;;;5017426;28;20069;-74
2022/07/07 11:33:00;;;;;;;3.47;1.25;;;;;;;;;;5017316;28;20038;-75
2022/07/07 11:35:30;;;;;;;3.13;0.90;;;;;;;;;;5017462;28;20050;-75
2022/07/07 11:37:56;;;;;;;7.43;0.90;;;;;;;;;;5017589;28;20046;-75
2022/07/07 11:40:24;;;;;;;14.85;1.30;;;;;;;;;;5017412;28;20044;-76
2022/07/07 11:42:51;;;;;;;2.70;0.93;;;;;;;;;;5017088;28;20041;-76
2022/07/07 11:45:25;;;;;;;4.15;0.90;;;;;;;;;;5017417;28;20504;-75
2022/07/07 11:47:51;;;;;;;1.40;0.90;;;;;;;;;;5017292;28;20096;-75
2022/07/07 11:50:18;;;;;;;1.40;0.80;;;;;;;;;;5017151;28;20061;-76
2022/07/07 11:52:55;;;;;;;2.33;0.93;;;;;;;;;;5017012;28;20042;-75
2022/07/07 11:55:21;;;;;;;2.10;0.80;;;;;;;;;;5017475;28;20396;-76
2022/07/07 11:57:51;;;;;;;3.95;1.00;;;;;;;;;;5016889;28;20065;-77
2022/07/07 12:00:22;;;;;;;7.47;1.58;;;;;;;;;;5016878;28;20050;-75
2022/07/07 12:02:52;;;;;;;3.95;1.05;;;;;;;;;;5016725;28;20106;-76
2022/07/07 12:05:18;;;;;;;;;;;;;;;;;;5017344;28;20058;-76
2022/07/07 12:07:52;;;;;;;4.53;0.80;;;;;;;;;;5017149;28;19909;-76
2022/07/07 12:10:32;;;;;;;2.97;0.98;;;;;;;;;;5026151;28;20045;-76
2022/07/07 12:13:01;;;;;;;1.58;1.02;;;;;;;;;;5016885;28;20049;-76
2022/07/07 12:15:29;;;;;;;4.78;0.88;;;;;;;;;;5016972;28;20072;-77
2022/07/07 12:17:56;;;;;;;8.90;1.27;;;;;;;;;;5016839;28;20096;-77
2022/07/07 12:20:22;;;;;;;12.25;1.73;;;;;;;;;;5016558;28;20049;-77
2022/07/07 12:23:08;;;;;;;2.40;0.82;;;;;;;;;;5016383;28;20046;-76
2022/07/07 12:25:34;;;;;;;2.58;0.63;;;;;;;;;;5016616;28;20053;-76
2022/07/07 12:28:02;;;;;;;4.88;1.00;;;;;;;;;;5015263;28;20374;-76
2022/07/07 12:30:34;;;;;;;3.95;0.80;;;;;;;;;;5016428;28;20053;-75
2022/07/07 12:33:00;;;;;;;1.88;0.65;;;;;;;;;;5015865;28;20049;-76
2022/07/07 12:35:30;;;;;;;9.90;0.77;;;;;;;;;;5016436;28;20058;-76
2022/07/07 12:37:58;;;;;;;3.00;0.85;;;;;;;;;;5017263;28;20481;-76
2022/07/07 12:40:25;;;;;;;2.35;0.70;;;;;;;;;;5016700;28;20509;-77
2022/07/07 12:42:51;;;;;;;5.57;1.65;;;;;;;;;;5016541;28;20079;-77
2022/07/07 12:45:19;;;;;;;6.47;0.90;;;;;;;;;;5016875;28;20053;-77
2022/07/07 12:47:46;;;;;;;6.18;0.80;;;;;;;;;;5016509;28;20513;-77
2022/07/07 12:50:13;;;;;;;1.75;0.82;;;;;;;;;;5016292;28;20038;-76
2022/07/07 12:52:39;;;;;;;1.38;0.70;;;;;;;;;;5016915;28;20030;-76
2022/07/07 12:55:14;;;;;;;4.85;0.80;;;;;;;;;;5016716;28;20554;-77
2022/07/07 12:57:41;;;;;;;2.63;1.13;;;;;;;;;;5016039;28;20038;-76
2022/07/07 13:00:10;;;;;;;6.05;0.80;;;;;;;;;;5016032;28;20052;-76
2022/07/07 13:02:36;;;;;;;1.90;0.70;;;;;;;;;;5016727;28;20038;-77
2022/07/07 13:05:02;;;;;;;4.88;0.80;;;;;;;;;;5016052;28;20042;-76
2022/07/07 13:07:28;;;;;;;2.30;0.85;;;;;;;;;;5016456;28;20385;-77
2022/07/07 13:09:55;;;;;;;2.20;0.80;;;;;;;;;;5016124;28;20128;-77
2022/07/07 13:12:21;;;;;;;2.90;0.70;;;;;;;;;;5016128;28;20092;-76
2022/07/07 13:14:48;;;;;;;2.25;1.00;;;;;;;;;;5016159;28;20045;-76
2022/07/07 13:17:14;;;;;;;1.85;0.77;;;;;;;;;;5015782;28;20046;-76
2022/07/07 13:19:41;;;;;;;1.02;0.93;;;;;;;;;;5015525;28;20041;-73
2022/07/07 13:22:07;;;;;;;4.07;0.80;;;;;;;;;;5015507;28;20046;-75
2022/07/07 13:24:33;;;;;;;2.75;0.93;;;;;;;;;;5015464;28;20042;-78
2022/07/07 13:27:00;;;;;;;5.97;0.95;;;;;;;;;;5015242;28;20046;-78
2022/07/07 13:29:26;;;;;;;3.28;0.90;;;;;;;;;;5015428;28;20038;-78
2022/07/07 13:31:52;;;;;;;4.15;0.90;;;;;;;;;;5014141;28;20049;-79
2022/07/07 13:34:18;;;;;;;3.40;0.98;;;;;;;;;;5014161;28;20045;-78
2022/07/07 13:36:44;;;;;;;5.13;0.90;;;;;;;;;;5014757;28;20056;-76
2022/07/07 13:39:10;;;;;;;3.33;0.90;;;;;;;;;;5014301;28;20034;-76
2022/07/07 13:41:37;;;;;;;2.50;0.90;;;;;;;;;;5013230;28;20119;-79
2022/07/07 13:44:03;;;;;;;3.47;1.00;;;;;;;;;;5012770;28;20080;-77
2022/07/07 13:46:30;;;;;;;2.65;0.77;;;;;;;;;;5014408;28;20050;-77
2022/07/07 13:48:56;;;;;;;2.25;0.80;;;;;;;;;;5014998;28;20034;-77
2022/07/07 13:51:22;;;;;;;5.80;1.48;;;;;;;;;;5014860;28;20041;-77
2022/07/07 13:53:49;;;;;;;2.05;0.80;;;;;;;;;;5014956;28;20451;-77
2022/07/07 13:56:15;;;;;;;3.78;0.80;;;;;;;;;;5014756;28;20396;-77
2022/07/07 13:58:41;;;;;;;2.55;0.80;;;;;;;;;;5014669;28;20042;-77
2022/07/07 14:01:08;;;;;;;8.90;1.20;;;;;;;;;;5014098;28;20041;-78
2022/07/07 14:03:34;;;;;;;51.55;3.53;;;;;;;;;;5013284;28;20064;-77
2022/07/07 14:06:00;;;;;;;3.58;0.80;;;;;;;;;;5014058;28;20073;-79
2022/07/07 14:08:26;;;;;;;2.65;1.20;;;;;;;;;;5015196;28;20041;-79
2022/07/07 14:10:53;;;;;;;4.63;0.88;;;;;;;;;;5014196;28;20159;-79
2022/07/07 14:13:19;;;;;;;4.05;1.08;;;;;;;;;;5014400;28;20048;-80
2022/07/07 14:15:46;;;;;;;6.80;1.00;;;;;;;;;;5013807;28;20428;-79
2022/07/07 14:18:12;;;;;;;1.55;0.85;;;;;;;;;;5014303;28;20038;-79
2022/07/07 14:20:39;;;;;;;3.65;1.00;;;;;;;;;;5014327;28;20037;-80
2022/07/07 14:23:05;;;;;;;6.38;0.77;;;;;;;;;;5013622;28;20530;-80
2022/07/07 14:25:31;;;;;;;2.75;0.95;;;;;;;;;;5004722;28;20417;-78
2022/07/07 14:27:57;;;;;;;1.73;0.70;;;;;;;;;;4995863;28;20121;-79
2022/07/07 14:30:23;;;;;;;5.03;1.00;;;;;;;;;;5013777;28;20542;-79
2022/07/07 14:32:50;;;;;;;2.60;0.95;;;;;;;;;;5012361;28;20042;-80
2022/07/07 14:35:17;;;;;;;7.95;1.50;;;;;;;;;;5013226;28;20096;-79
2022/07/07 14:37:43;;;;;;;5.35;0.93;;;;;;;;;;5013635;28;20037;-80
2022/07/07 14:40:09;;;;;;;6.50;1.00;;;;;;;;;;5013111;28;20046;-81
2022/07/07 14:42:35;;;;;;;2.75;0.77;;;;;;;;;;5013502;28;20049;-78
2022/07/07 14:45:01;;;;;;;3.60;0.70;;;;;;;;;;5013428;28;20404;-81
2022/07/07 14:47:27;;;;;;;4.40;0.90;;;;;;;;;;5016983;28;20041;-79
2022/07/07 14:49:54;;;;;;;3.50;0.80;;;;;;;;;;5016588;28;20121;-79